createdAt,value
2023-04-02T00:01:07.189Z,6.65
2023-04-02T00:04:26.538Z,6.66
2023-04-02T00:07:30.747Z,6.66
2023-04-02T00:10:00.866Z,6.69
2023-04-02T00:12:29.120Z,6.67
2023-04-02T00:15:03.670Z,6.66
2023-04-02T00:17:31.868Z,6.65
2023-04-02T00:20:20.066Z,6.66
2023-04-02T00:22:50.393Z,6.62
2023-04-02T00:25:20.431Z,6.64
2023-04-02T00:27:53.611Z,6.61
2023-04-02T00:30:48.035Z,6.61
2023-04-02T00:33:19.496Z,6.64
2023-04-02T00:35:49.373Z,6.68
2023-04-02T00:38:28.940Z,6.68
2023-04-02T00:41:08.965Z,6.70
2023-04-02T00:43:39.653Z,6.68
2023-04-02T00:46:14.236Z,6.73
2023-04-02T00:48:50.129Z,6.70
2023-04-02T00:51:24.973Z,6.72
2023-04-02T00:53:55.968Z,6.70
2023-04-02T00:56:30.367Z,6.73
2023-04-02T00:58:59.269Z,6.72
2023-04-02T01:01:35.802Z,6.75
2023-04-02T01:04:08.508Z,6.76
2023-04-02T01:06:39.080Z,6.79
2023-04-02T01:09:16.691Z,6.79
2023-04-02T01:12:26.505Z,6.81
2023-04-02T01:15:07.570Z,6.78
2023-04-02T01:17:50.284Z,6.80
2023-04-02T01:21:01.997Z,6.80
2023-04-02T01:23:36.712Z,6.78
2023-04-02T01:26:36.111Z,6.83
2023-04-02T01:29:28.714Z,6.84
2023-04-02T01:32:01.482Z,6.86
2023-04-02T01:34:30.997Z,6.80
2023-04-02T01:37:10.382Z,6.84
2023-04-02T01:39:53.028Z,6.84
2023-04-02T01:42:29.740Z,6.88
2023-04-02T01:45:14.505Z,6.86
2023-04-02T01:47:44.989Z,6.84
2023-04-02T01:50:25.435Z,6.84
2023-04-02T01:53:06.199Z,6.87
2023-04-02T01:55:42.723Z,6.88
2023-04-02T01:58:12.582Z,6.84
2023-04-02T02:00:47.586Z,6.87
2023-04-02T02:03:17.602Z,6.85
2023-04-02T02:05:46.533Z,6.88
2023-04-02T02:08:28.827Z,6.88
2023-04-02T02:10:57.656Z,6.83
2023-04-02T02:13:25.844Z,6.80
2023-04-02T02:16:18.964Z,6.79
2023-04-02T02:18:51.755Z,6.85
2023-04-02T02:21:30.648Z,6.81
2023-04-02T02:23:58.881Z,6.83
2023-04-02T02:26:49.968Z,6.82
2023-04-02T02:29:36.188Z,6.83
2023-04-02T02:32:16.561Z,6.85
2023-04-02T02:34:49.731Z,6.84
2023-04-02T02:37:24.645Z,6.87
2023-04-02T02:39:56.247Z,6.82
2023-04-02T02:42:29.104Z,6.81
2023-04-02T02:44:58.483Z,6.87
2023-04-02T02:47:29.817Z,6.88
2023-04-02T02:50:04.810Z,6.84
2023-04-02T02:52:38.238Z,6.84
2023-04-02T02:55:22.477Z,6.86
2023-04-02T02:58:01.508Z,6.86
2023-04-02T03:00:35.845Z,6.87
2023-04-02T03:03:10.773Z,6.89
2023-04-02T03:06:02.269Z,6.86
2023-04-02T03:08:38.120Z,6.86
2023-04-02T03:11:13.520Z,6.84
2023-04-02T03:13:47.368Z,6.87
2023-04-02T03:16:26.966Z,6.89
2023-04-02T03:19:27.512Z,6.87
2023-04-02T03:22:02.970Z,6.84
2023-04-02T03:24:38.852Z,6.85
2023-04-02T03:27:19.374Z,6.86
2023-04-02T03:30:26.486Z,6.84
2023-04-02T03:33:18.417Z,6.85
2023-04-02T03:35:56.296Z,6.84
2023-04-02T03:38:34.517Z,6.84
2023-04-02T03:41:12.478Z,6.85
2023-04-02T03:43:55.813Z,6.83
2023-04-02T03:46:28.285Z,6.84
2023-04-02T03:49:00.848Z,6.80
2023-04-02T03:51:37.619Z,6.81
2023-04-02T03:54:19.182Z,6.81
2023-04-02T03:56:47.790Z,6.82
2023-04-02T03:59:31.953Z,6.81
2023-04-02T04:02:07.337Z,6.84
2023-04-02T04:04:41.003Z,6.81
2023-04-02T04:07:20.580Z,6.83
2023-04-02T04:09:53.324Z,6.84
2023-04-02T04:12:29.825Z,6.85
2023-04-02T04:15:07.209Z,6.84
2023-04-02T04:17:54.339Z,6.84
2023-04-02T04:20:35.515Z,6.78
2023-04-02T04:23:19.861Z,6.82
2023-04-02T04:25:49.479Z,6.81
2023-04-02T04:28:26.257Z,6.83
2023-04-02T04:31:18.100Z,6.83
2023-04-02T04:33:54.846Z,6.83
2023-04-02T04:36:31.318Z,6.83
2023-04-02T04:39:29.555Z,6.83
2023-04-02T04:42:06.543Z,6.84
2023-04-02T04:44:54.512Z,6.84
2023-04-02T04:47:27.454Z,6.83
2023-04-02T04:50:01.052Z,6.87
2023-04-02T04:52:39.449Z,6.85
2023-04-02T04:55:28.464Z,6.87
2023-04-02T04:58:03.252Z,6.82
2023-04-02T05:00:43.580Z,6.81
2023-04-02T05:03:29.939Z,6.83
2023-04-02T05:06:23.898Z,6.86
2023-04-02T05:09:00.333Z,6.84
2023-04-02T05:11:35.853Z,6.85
2023-04-02T05:14:10.320Z,6.85
2023-04-02T05:16:57.399Z,6.86
2023-04-02T05:19:33.172Z,6.83
2023-04-02T05:22:13.356Z,6.84
2023-04-02T05:24:57.883Z,6.84
2023-04-02T05:27:38.070Z,6.84
2023-04-02T05:30:20.237Z,6.84
2023-04-02T05:32:57.603Z,6.82
2023-04-02T05:35:32.333Z,6.85
2023-04-02T05:38:02.494Z,6.89
2023-04-02T05:40:42.743Z,6.91
2023-04-02T05:43:20.600Z,6.91
2023-04-02T05:45:55.404Z,6.94
2023-04-02T05:48:30.445Z,6.96
2023-04-02T05:51:00.217Z,6.98
2023-04-02T05:53:56.540Z,7.03
2023-04-02T05:56:42.380Z,7.04
2023-04-02T05:59:17.519Z,7.05
2023-04-02T06:01:50.420Z,7.05
2023-04-02T06:04:31.840Z,7.03
2023-04-02T06:07:09.683Z,7.09
2023-04-02T06:09:46.080Z,7.07
2023-04-02T06:12:23.791Z,7.12
2023-04-02T06:14:56.615Z,7.13
2023-04-02T06:17:48.654Z,7.13
2023-04-02T06:20:18.892Z,7.18
2023-04-02T06:22:52.496Z,7.18
2023-04-02T06:25:25.356Z,7.19
2023-04-02T06:28:16.344Z,7.23
2023-04-02T06:30:55.052Z,7.27
2023-04-02T06:33:23.433Z,7.31
2023-04-02T06:35:53.332Z,7.31
2023-04-02T06:38:32.380Z,7.35
2023-04-02T06:41:06.078Z,7.38
2023-04-02T06:44:01.129Z,7.40
2023-04-02T06:46:47.156Z,7.43
2023-04-02T06:49:23.953Z,7.47
2023-04-02T06:52:07.846Z,7.50
2023-04-02T06:54:36.322Z,7.54
2023-04-02T06:57:13.663Z,7.59
2023-04-02T06:59:45.464Z,7.58
2023-04-02T07:02:30.191Z,7.63
2023-04-02T07:05:10.381Z,7.66
2023-04-02T07:07:54.606Z,7.76
2023-04-02T07:10:22.543Z,7.78
2023-04-02T07:12:50.613Z,7.82
2023-04-02T07:15:24.060Z,7.82
2023-04-02T07:17:57.177Z,7.87
2023-04-02T07:20:30.523Z,7.90
2023-04-02T07:23:01.932Z,7.89
2023-04-02T07:25:30.301Z,7.92
2023-04-02T07:27:58.291Z,8.00
2023-04-02T07:30:26.157Z,8.01
2023-04-02T07:32:55.742Z,8.07
2023-04-02T07:35:23.756Z,8.11
2023-04-02T07:37:52.886Z,8.15
2023-04-02T07:40:24.234Z,8.18
2023-04-02T07:42:52.107Z,8.23
2023-04-02T07:45:20.255Z,8.26
2023-04-02T07:47:48.123Z,8.28
2023-04-02T07:50:17.929Z,8.33
2023-04-02T07:52:46.285Z,8.34
2023-04-02T07:55:16.153Z,8.35
2023-04-02T07:57:49.901Z,8.40
2023-04-02T08:00:19.131Z,8.37
2023-04-02T08:02:47.379Z,8.40
2023-04-02T08:05:17.930Z,8.45
2023-04-02T08:07:46.394Z,8.46
2023-04-02T08:10:14.315Z,8.52
2023-04-02T08:12:42.371Z,8.55
2023-04-02T08:15:15.137Z,8.54
2023-04-02T08:17:43.437Z,8.56
2023-04-02T08:20:18.128Z,8.66
2023-04-02T08:22:46.358Z,8.68
2023-04-02T08:25:14.615Z,8.62
2023-04-02T08:27:43.335Z,8.66
2023-04-02T08:30:13.622Z,8.71
2023-04-02T08:32:42.021Z,8.77
2023-04-02T08:35:11.631Z,8.84
2023-04-02T08:37:41.337Z,8.86
2023-04-02T08:40:22.093Z,8.94
2023-04-02T08:43:02.555Z,9.01
2023-04-02T08:45:40.686Z,9.08
2023-04-02T08:48:11.716Z,9.04
2023-04-02T08:50:41.869Z,9.12
2023-04-02T08:53:16.332Z,9.12
2023-04-02T08:55:52.575Z,9.17
2023-04-02T08:58:30.584Z,9.24
2023-04-02T09:01:04.316Z,9.23
2023-04-02T09:03:37.689Z,9.23
2023-04-02T09:06:09.943Z,9.24
2023-04-02T09:08:40.605Z,9.24
2023-04-02T09:11:12.957Z,9.22
2023-04-02T09:13:47.789Z,9.19
2023-04-02T09:16:17.749Z,9.16
2023-04-02T09:18:47.148Z,9.21
2023-04-02T09:21:31.532Z,9.12
2023-04-02T09:24:01.550Z,9.12
2023-04-02T09:26:32.578Z,9.07
2023-04-02T09:29:10.965Z,9.12
2023-04-02T09:31:43.752Z,9.05
2023-04-02T09:34:30.687Z,9.06
2023-04-02T09:37:08.691Z,9.02
2023-04-02T09:39:37.984Z,9.09
2023-04-02T09:42:09.764Z,9.08
2023-04-02T09:44:37.910Z,9.08
2023-04-02T09:47:09.446Z,9.01
2023-04-02T09:49:39.623Z,9.03
2023-04-02T09:52:21.062Z,9.03
2023-04-02T09:55:18.677Z,9.07
2023-04-02T09:57:48.367Z,9.08
2023-04-02T10:00:31.254Z,9.04
2023-04-02T10:03:06.921Z,9.07
2023-04-02T10:08:18.050Z,9.03
2023-04-02T10:10:51.038Z,9.06
2023-04-02T10:13:24.284Z,9.04
2023-04-02T10:15:56.680Z,9.08
2023-04-02T10:18:38.692Z,9.04
2023-04-02T10:21:07.605Z,9.08
2023-04-02T10:23:35.989Z,9.08
2023-04-02T10:26:20.245Z,9.10
2023-04-02T10:29:06.383Z,9.07
2023-04-02T10:31:41.550Z,9.06
2023-04-02T10:34:17.025Z,9.06
2023-04-02T10:36:51.959Z,9.10
2023-04-02T10:39:23.844Z,9.12
2023-04-02T10:41:58.224Z,9.15
2023-04-02T10:44:43.725Z,9.13
2023-04-02T10:47:31.109Z,9.18
2023-04-02T10:50:12.590Z,9.11
2023-04-02T10:52:47.144Z,9.21
2023-04-02T10:55:19.154Z,9.21
2023-04-02T10:57:48.693Z,9.23
2023-04-02T11:00:24.084Z,9.27
2023-04-02T11:02:56.187Z,9.27
2023-04-02T11:05:32.316Z,9.21
2023-04-02T11:08:08.052Z,9.22
2023-04-02T11:10:40.803Z,9.21
2023-04-02T11:13:19.449Z,9.25
2023-04-02T11:15:47.423Z,9.25
2023-04-02T11:18:24.989Z,9.31
2023-04-02T11:20:59.217Z,9.23
2023-04-02T11:23:32.980Z,9.34
2023-04-02T11:26:42.726Z,9.35
2023-04-02T11:29:18.351Z,9.41
2023-04-02T11:31:47.246Z,9.43
2023-04-02T11:35:05.107Z,9.44
2023-04-02T11:37:38.277Z,9.43
2023-04-02T11:40:44.683Z,9.46
2023-04-02T11:43:50.344Z,9.54
2023-04-02T11:46:50.735Z,9.52
2023-04-02T11:49:57.242Z,9.44
2023-04-02T11:52:28.431Z,9.54
2023-04-02T11:54:59.528Z,9.56
2023-04-02T11:57:46.289Z,9.62
2023-04-02T12:00:32.594Z,9.69
2023-04-02T12:03:33.038Z,9.74
2023-04-02T12:06:07.357Z,9.77
2023-04-02T12:08:57.208Z,9.72
2023-04-02T12:11:33.826Z,9.84
2023-04-02T12:14:03.130Z,9.88
2023-04-02T12:16:35.542Z,9.89
2023-04-02T12:19:10.472Z,9.94
2023-04-02T12:21:39.074Z,9.95
2023-04-02T12:24:07.783Z,10.00
2023-04-02T12:26:38.431Z,10.10
2023-04-02T12:29:17.294Z,10.21
2023-04-02T12:31:45.923Z,10.24
2023-04-02T12:34:17.735Z,10.27
2023-04-02T12:37:02.634Z,10.43
2023-04-02T12:39:31.670Z,10.43
2023-04-02T12:41:59.625Z,10.41
2023-04-02T12:44:29.761Z,10.44
2023-04-02T12:46:59.427Z,10.58
2023-04-02T12:49:35.377Z,10.56
2023-04-02T12:52:06.226Z,10.72
2023-04-02T12:54:38.211Z,10.57
2023-04-02T12:57:33.921Z,10.66
2023-04-02T13:00:06.414Z,10.64
2023-04-02T13:02:45.031Z,10.60
2023-04-02T13:05:14.593Z,10.60
2023-04-02T13:07:48.971Z,10.56
2023-04-02T13:10:25.433Z,10.40
2023-04-02T13:12:56.656Z,10.37
2023-04-02T13:15:28.539Z,10.29
2023-04-02T13:18:21.297Z,10.24
2023-04-02T13:20:58.323Z,10.27
2023-04-02T13:23:34.226Z,10.28
2023-04-02T13:26:05.413Z,10.13
2023-04-02T13:28:33.394Z,10.10
2023-04-02T13:31:01.349Z,10.02
2023-04-02T13:33:29.231Z,9.99
2023-04-02T13:35:58.503Z,9.98
2023-04-02T13:38:26.866Z,10.01
2023-04-02T13:40:55.040Z,9.99
2023-04-02T13:43:23.040Z,9.95
2023-04-02T13:45:54.149Z,9.89
2023-04-02T13:48:26.078Z,9.89
2023-04-02T13:50:54.241Z,9.88
2023-04-02T13:53:30.025Z,9.87
2023-04-02T13:55:58.189Z,9.86
2023-04-02T13:58:44.826Z,9.74
2023-04-02T14:01:14.462Z,9.72
2023-04-02T14:03:48.262Z,9.57
2023-04-02T14:06:23.193Z,9.62
2023-04-02T14:09:04.230Z,9.62
2023-04-02T14:11:45.543Z,9.62
2023-04-02T14:14:39.228Z,9.54
2023-04-02T14:17:18.588Z,9.51
2023-04-02T14:20:00.862Z,9.42
2023-04-02T14:22:42.894Z,9.36
2023-04-02T14:25:21.470Z,9.12
2023-04-02T14:27:59.626Z,9.22
2023-04-02T14:30:39.640Z,9.17
2023-04-02T14:33:13.954Z,9.09
2023-04-02T14:35:46.337Z,9.02
2023-04-02T14:38:21.732Z,8.95
2023-04-02T14:40:56.891Z,8.81
2023-04-02T14:43:27.711Z,8.69
2023-04-02T14:46:06.121Z,8.70
2023-04-02T14:48:50.432Z,8.71
2023-04-02T14:51:26.404Z,8.64
2023-04-02T14:54:02.962Z,8.51
2023-04-02T14:56:37.485Z,8.54
2023-04-02T14:59:24.724Z,8.40
2023-04-02T15:01:59.113Z,8.41
2023-04-02T15:04:32.004Z,8.35
2023-04-02T15:07:05.428Z,8.32
2023-04-02T15:09:46.178Z,8.36
2023-04-02T15:12:32.135Z,8.30
2023-04-02T15:15:26.821Z,8.14
2023-04-02T15:18:03.131Z,8.21
2023-04-02T15:20:40.745Z,8.27
2023-04-02T15:23:17.351Z,8.21
2023-04-02T15:25:50.382Z,8.24
2023-04-02T15:28:31.222Z,8.21
2023-04-02T15:31:04.578Z,8.24
2023-04-02T15:33:41.551Z,8.20
2023-04-02T15:36:42.694Z,8.18
2023-04-02T15:39:42.154Z,8.09
2023-04-02T15:42:17.371Z,8.11
2023-04-02T15:45:16.561Z,8.10
2023-04-02T15:48:07.811Z,8.10
2023-04-02T15:51:03.619Z,8.07
2023-04-02T15:53:45.954Z,8.03
2023-04-02T15:56:40.327Z,8.00
2023-04-02T15:59:45.246Z,7.88
2023-04-02T16:02:55.128Z,7.96
2023-04-02T16:05:34.511Z,7.89
2023-04-02T16:08:19.833Z,7.85
2023-04-02T16:10:47.977Z,7.68
2023-04-02T16:13:20.614Z,7.77
2023-04-02T16:15:54.965Z,7.67
2023-04-02T16:18:38.542Z,7.58
2023-04-02T16:21:07.994Z,7.52
2023-04-02T16:23:45.595Z,7.49
2023-04-02T16:26:42.749Z,7.56
2023-04-02T16:29:23.986Z,7.32
2023-04-02T16:31:59.575Z,7.41
2023-04-02T16:34:38.290Z,7.41
2023-04-02T16:37:21.003Z,7.41
2023-04-02T16:39:57.954Z,7.44
2023-04-02T16:42:38.020Z,7.32
2023-04-02T16:45:25.196Z,7.30
2023-04-02T16:48:08.371Z,7.31
2023-04-02T16:50:53.148Z,7.33
2023-04-02T16:53:31.911Z,7.29
2023-04-02T16:56:30.038Z,7.22
2023-04-02T16:59:12.952Z,7.17
2023-04-02T17:01:47.496Z,7.13
2023-04-02T17:04:32.210Z,7.13
2023-04-02T17:07:11.443Z,7.15
2023-04-02T17:09:50.030Z,7.08
2023-04-02T17:12:22.052Z,7.17
2023-04-02T17:14:54.651Z,7.09
2023-04-02T17:17:24.171Z,7.10
2023-04-02T17:19:57.759Z,7.06
2023-04-02T17:22:27.689Z,7.07
2023-04-02T17:24:58.325Z,6.98
2023-04-02T17:27:30.323Z,6.84
2023-04-02T17:30:04.918Z,6.83
2023-04-02T17:32:34.741Z,6.80
2023-04-02T17:35:17.748Z,6.77
2023-04-02T17:37:52.898Z,6.86
2023-04-02T17:40:27.089Z,6.85
2023-04-02T17:43:04.137Z,6.78
2023-04-02T17:45:39.372Z,6.86
2023-04-02T17:48:16.296Z,6.82
2023-04-02T17:50:59.868Z,6.73
2023-04-02T17:53:40.729Z,6.74
2023-04-02T17:56:22.076Z,6.67
2023-04-02T17:59:23.545Z,6.68
2023-04-02T18:02:00.967Z,6.69
2023-04-02T18:04:39.783Z,6.60
2023-04-02T18:07:24.327Z,6.59
2023-04-02T18:10:03.170Z,6.54
2023-04-02T18:12:47.291Z,6.54
2023-04-02T18:15:53.565Z,6.44
2023-04-02T18:18:45.653Z,6.41
2023-04-02T18:21:21.434Z,6.27
2023-04-02T18:24:03.828Z,6.30
2023-04-02T18:26:45.330Z,6.26
2023-04-02T18:29:24.474Z,6.19
2023-04-02T18:32:04.215Z,6.17
2023-04-02T18:34:48.089Z,6.07
2023-04-02T18:37:38.769Z,6.07
2023-04-02T18:40:27.515Z,6.01
2023-04-02T18:43:03.363Z,6.11
2023-04-02T18:45:44.484Z,5.95
2023-04-02T18:48:41.142Z,5.89
2023-04-02T18:51:35.401Z,5.95
2023-04-02T18:54:16.880Z,5.89
2023-04-02T18:56:44.946Z,5.89
2023-04-02T18:59:33.342Z,5.88
2023-04-02T19:02:04.382Z,5.88
2023-04-02T19:04:35.882Z,5.85
2023-04-02T19:07:06.403Z,5.77
2023-04-02T19:09:37.735Z,5.73
2023-04-02T19:12:18.537Z,5.73
2023-04-02T19:15:00.520Z,5.65
2023-04-02T19:17:36.949Z,5.66
2023-04-02T19:20:15.101Z,5.69
2023-04-02T19:22:53.603Z,5.46
2023-04-02T19:25:39.499Z,5.44
2023-04-02T19:28:13.464Z,5.38
2023-04-02T19:30:58.992Z,5.27
2023-04-02T19:33:43.613Z,5.19
2023-04-02T19:36:51.422Z,5.20
2023-04-02T19:39:46.543Z,5.21
2023-04-02T19:42:31.466Z,5.20
2023-04-02T19:44:59.947Z,5.05
2023-04-02T19:47:33.258Z,5.07
2023-04-02T19:50:02.696Z,5.02
2023-04-02T19:52:38.169Z,4.97
2023-04-02T19:55:06.693Z,4.97
2023-04-02T19:57:34.706Z,4.94
2023-04-02T20:00:22.115Z,4.98
2023-04-02T20:02:51.892Z,4.90
2023-04-02T20:05:20.150Z,4.78
2023-04-02T20:07:48.124Z,4.87
2023-04-02T20:10:16.428Z,4.75
2023-04-02T20:12:50.585Z,4.72
2023-04-02T20:15:19.880Z,4.63
2023-04-02T20:17:47.921Z,4.69
2023-04-02T20:20:17.694Z,4.67
2023-04-02T20:22:55.174Z,4.53
2023-04-02T20:25:26.816Z,4.51
2023-04-02T20:27:54.894Z,4.43
2023-04-02T20:30:22.970Z,4.44
2023-04-02T20:32:51.078Z,4.44
2023-04-02T20:35:20.780Z,4.43
2023-04-02T20:37:48.919Z,4.29
2023-04-02T20:40:17.065Z,4.29
2023-04-02T20:42:45.052Z,4.27
2023-04-02T20:45:13.166Z,4.28
2023-04-02T20:47:51.617Z,4.26
2023-04-02T20:50:24.556Z,4.15
2023-04-02T20:52:52.833Z,4.12
2023-04-02T20:55:21.654Z,4.13
2023-04-02T20:57:49.720Z,4.05
2023-04-02T21:00:18.504Z,4.14
2023-04-02T21:02:46.781Z,4.06
2023-04-02T21:05:15.021Z,4.09
2023-04-02T21:07:44.382Z,4.07
2023-04-02T21:10:19.270Z,3.97
2023-04-02T21:12:56.883Z,4.12
2023-04-02T21:15:25.349Z,4.04
2023-04-02T21:17:53.759Z,4.05
2023-04-02T21:20:22.212Z,4.07
2023-04-02T21:23:10.305Z,4.12
2023-04-02T21:25:38.839Z,4.03
2023-04-02T21:28:08.353Z,4.03
2023-04-02T21:30:36.648Z,4.06
2023-04-02T21:33:04.777Z,4.02
2023-04-02T21:35:33.075Z,3.93
2023-04-02T21:38:14.753Z,3.85
2023-04-02T21:40:51.706Z,3.96
2023-04-02T21:43:19.716Z,3.84
2023-04-02T21:45:47.761Z,3.90
2023-04-02T21:48:19.654Z,3.94
2023-04-02T21:51:07.651Z,3.84
2023-04-02T21:53:37.400Z,3.93
2023-04-02T21:56:07.172Z,3.94
2023-04-02T21:58:35.730Z,3.87
2023-04-02T22:01:07.069Z,3.93
2023-04-02T22:03:37.272Z,3.89
2023-04-02T22:06:08.572Z,3.91
2023-04-02T22:08:39.445Z,3.97
2023-04-02T22:11:08.951Z,3.86
2023-04-02T22:13:37.230Z,3.88
2023-04-02T22:16:07.416Z,3.88
2023-04-02T22:18:36.108Z,3.92
2023-04-02T22:21:04.272Z,3.93
2023-04-02T22:23:33.119Z,3.98
2023-04-02T22:26:03.615Z,3.90
2023-04-02T22:28:31.795Z,3.93
2023-04-02T22:31:06.551Z,3.84
2023-04-02T22:33:35.640Z,3.81
2023-04-02T22:36:04.838Z,3.77
2023-04-02T22:38:33.472Z,3.65
2023-04-02T22:41:08.021Z,3.69
2023-04-02T22:43:36.489Z,3.64
2023-04-02T22:46:05.049Z,3.65
2023-04-02T22:48:34.832Z,3.58
2023-04-02T22:51:03.358Z,3.62
2023-04-02T22:53:31.321Z,3.48
2023-04-02T22:56:03.234Z,3.57
2023-04-02T22:58:32.565Z,3.65
2023-04-02T23:01:04.631Z,3.64
2023-04-02T23:03:32.606Z,3.63
2023-04-02T23:06:01.742Z,3.64
2023-04-02T23:08:29.933Z,3.51
2023-04-02T23:11:02.684Z,3.49
2023-04-02T23:13:32.976Z,3.40
2023-04-02T23:16:02.341Z,3.38
2023-04-02T23:18:30.564Z,3.35
2023-04-02T23:20:58.517Z,3.43
2023-04-02T23:23:26.839Z,3.25
2023-04-02T23:26:04.663Z,3.30
2023-04-02T23:28:34.352Z,3.21
2023-04-02T23:31:03.296Z,3.23
2023-04-02T23:33:31.475Z,3.18
2023-04-02T23:35:59.706Z,3.20
2023-04-02T23:38:27.977Z,3.31
2023-04-02T23:40:55.937Z,3.13
2023-04-02T23:43:23.842Z,3.26
2023-04-02T23:45:53.100Z,3.23
2023-04-02T23:48:21.162Z,3.30
2023-04-02T23:50:49.133Z,3.27
2023-04-02T23:53:18.717Z,3.11
2023-04-02T23:55:46.934Z,3.15
2023-04-02T23:58:14.989Z,3.17
